sensor_id;sensor_type;location;lat;lon;timestamp;pressure;altitude;pressure_sealevel;temperature;humidity
11395;BME280;5753;54.402;10.220;2023-04-26T00:02:13;101299.13;;;12.46;46.95
11395;BME280;5753;54.402;10.220;2023-04-26T00:04:40;101301.75;;;11.97;47.74
11395;BME280;5753;54.402;10.220;2023-04-26T00:07:06;101293.31;;;13.24;45.51
11395;BME280;5753;54.402;10.220;2023-04-26T00:09:33;101303.25;;;12.92;45.21
11395;BME280;5753;54.402;10.220;2023-04-26T00:11:59;101299.09;;;13.03;45.92
11395;BME280;5753;54.402;10.220;2023-04-26T00:14:26;101305.03;;;12.96;45.87
11395;BME280;5753;54.402;10.220;2023-04-26T00:16:52;101310.31;;;13.73;44.11
11395;BME280;5753;54.402;10.220;2023-04-26T00:19:18;101309.13;;;12.80;45.84
11395;BME280;5753;54.402;10.220;2023-04-26T00:21:44;101308.09;;;12.71;46.28
11395;BME280;5753;54.402;10.220;2023-04-26T00:24:10;101304.25;;;12.44;46.44
11395;BME280;5753;54.402;10.220;2023-04-26T00:26:36;101313.72;;;11.92;47.75
11395;BME280;5753;54.402;10.220;2023-04-26T00:29:06;101307.94;;;11.62;48.06
11395;BME280;5753;54.402;10.220;2023-04-26T00:31:32;101310.13;;;12.90;45.81
11395;BME280;5753;54.402;10.220;2023-04-26T00:33:58;101311.25;;;12.51;46.11
11395;BME280;5753;54.402;10.220;2023-04-26T00:36:24;101314.47;;;12.35;46.88
11395;BME280;5753;54.402;10.220;2023-04-26T00:38:51;101315.38;;;11.87;47.52
11395;BME280;5753;54.402;10.220;2023-04-26T00:41:17;101311.66;;;12.23;46.77
11395;BME280;5753;54.402;10.220;2023-04-26T00:43:43;101314.75;;;11.57;49.15
11395;BME280;5753;54.402;10.220;2023-04-26T00:46:10;101307.41;;;11.78;48.08
11395;BME280;5753;54.402;10.220;2023-04-26T00:48:36;101300.63;;;12.90;45.98
11395;BME280;5753;54.402;10.220;2023-04-26T00:51:04;101309.25;;;12.32;47.19
11395;BME280;5753;54.402;10.220;2023-04-26T00:53:31;101312.25;;;12.07;47.74
11395;BME280;5753;54.402;10.220;2023-04-26T00:55:58;101313.59;;;11.43;49.56
11395;BME280;5753;54.402;10.220;2023-04-26T00:58:25;101316.66;;;12.12;48.15
11395;BME280;5753;54.402;10.220;2023-04-26T01:00:51;101316.38;;;11.95;48.35
11395;BME280;5753;54.402;10.220;2023-04-26T01:03:17;101321.81;;;11.67;49.02
11395;BME280;5753;54.402;10.220;2023-04-26T01:05:44;101322.13;;;11.39;49.90
11395;BME280;5753;54.402;10.220;2023-04-26T01:08:11;101324.84;;;12.38;47.51
11395;BME280;5753;54.402;10.220;2023-04-26T01:10:39;101328.03;;;11.77;48.49
11395;BME280;5753;54.402;10.220;2023-04-26T01:13:05;101316.47;;;12.54;46.84
11395;BME280;5753;54.402;10.220;2023-04-26T01:15:31;101336.25;;;12.00;48.13
11395;BME280;5753;54.402;10.220;2023-04-26T01:17:58;101331.38;;;12.18;48.05
11395;BME280;5753;54.402;10.220;2023-04-26T01:20:25;101333.41;;;11.86;48.58
11395;BME280;5753;54.402;10.220;2023-04-26T01:22:51;101334.47;;;12.47;46.38
11395;BME280;5753;54.402;10.220;2023-04-26T01:25:18;101341.19;;;12.36;46.76
11395;BME280;5753;54.402;10.220;2023-04-26T01:27:45;101335.88;;;12.81;45.38
11395;BME280;5753;54.402;10.220;2023-04-26T01:30:11;101332.19;;;12.14;46.61
11395;BME280;5753;54.402;10.220;2023-04-26T01:32:37;101333.34;;;12.31;46.56
11395;BME280;5753;54.402;10.220;2023-04-26T01:35:04;101330.66;;;12.79;45.48
11395;BME280;5753;54.402;10.220;2023-04-26T01:37:30;101334.00;;;11.74;47.27
11395;BME280;5753;54.402;10.220;2023-04-26T01:39:56;101338.59;;;12.91;44.65
11395;BME280;5753;54.402;10.220;2023-04-26T01:42:22;101341.88;;;12.27;45.92
11395;BME280;5753;54.402;10.220;2023-04-26T01:44:48;101335.63;;;12.66;45.33
11395;BME280;5753;54.402;10.220;2023-04-26T01:47:15;101342.34;;;12.54;45.19
11395;BME280;5753;54.402;10.220;2023-04-26T01:49:41;101337.72;;;12.35;45.99
11395;BME280;5753;54.402;10.220;2023-04-26T01:52:07;101340.03;;;11.75;47.21
11395;BME280;5753;54.402;10.220;2023-04-26T01:54:33;101340.75;;;11.67;47.34
11395;BME280;5753;54.402;10.220;2023-04-26T01:57:00;101333.50;;;11.90;47.06
11395;BME280;5753;54.402;10.220;2023-04-26T01:59:27;101329.78;;;11.78;47.93
11395;BME280;5753;54.402;10.220;2023-04-26T02:01:53;101341.34;;;12.46;46.50
11395;BME280;5753;54.402;10.220;2023-04-26T02:04:19;101340.78;;;11.27;48.08
11395;BME280;5753;54.402;10.220;2023-04-26T02:06:45;101336.25;;;12.00;46.65
11395;BME280;5753;54.402;10.220;2023-04-26T02:09:11;101342.34;;;12.54;45.48
11395;BME280;5753;54.402;10.220;2023-04-26T02:11:37;101336.63;;;12.22;45.79
11395;BME280;5753;54.402;10.220;2023-04-26T02:14:03;101342.75;;;12.29;46.03
11395;BME280;5753;54.402;10.220;2023-04-26T02:16:29;101333.59;;;13.05;44.68
11395;BME280;5753;54.402;10.220;2023-04-26T02:18:57;101339.19;;;12.74;45.47
11395;BME280;5753;54.402;10.220;2023-04-26T02:21:24;101335.69;;;12.72;45.08
11395;BME280;5753;54.402;10.220;2023-04-26T02:23:51;101336.72;;;12.80;45.06
11395;BME280;5753;54.402;10.220;2023-04-26T02:26:17;101352.53;;;12.45;45.82
11395;BME280;5753;54.402;10.220;2023-04-26T02:28:44;101356.97;;;12.54;45.79
11395;BME280;5753;54.402;10.220;2023-04-26T02:31:10;101351.09;;;13.21;44.73
11395;BME280;5753;54.402;10.220;2023-04-26T02:33:36;101347.91;;;12.79;45.31
11395;BME280;5753;54.402;10.220;2023-04-26T02:36:03;101350.00;;;12.48;45.31
11395;BME280;5753;54.402;10.220;2023-04-26T02:38:34;101347.94;;;12.82;45.37
11395;BME280;5753;54.402;10.220;2023-04-26T02:41:02;101352.88;;;12.15;46.08
11395;BME280;5753;54.402;10.220;2023-04-26T02:43:28;101346.03;;;11.74;47.44
11395;BME280;5753;54.402;10.220;2023-04-26T02:45:55;101344.22;;;12.65;45.26
11395;BME280;5753;54.402;10.220;2023-04-26T02:48:23;101358.75;;;12.56;45.82
11395;BME280;5753;54.402;10.220;2023-04-26T02:50:49;101349.94;;;11.95;47.37
11395;BME280;5753;54.402;10.220;2023-04-26T02:53:15;101367.47;;;12.12;46.03
11395;BME280;5753;54.402;10.220;2023-04-26T02:55:42;101353.75;;;12.69;45.07
11395;BME280;5753;54.402;10.220;2023-04-26T02:58:08;101352.19;;;11.37;48.27
11395;BME280;5753;54.402;10.220;2023-04-26T03:00:35;101355.63;;;12.26;45.81
11395;BME280;5753;54.402;10.220;2023-04-26T03:03:01;101356.72;;;11.89;46.97
11395;BME280;5753;54.402;10.220;2023-04-26T03:05:27;101347.94;;;12.82;45.50
11395;BME280;5753;54.402;10.220;2023-04-26T03:07:53;101352.72;;;12.56;45.65
11395;BME280;5753;54.402;10.220;2023-04-26T03:10:19;101350.59;;;12.85;45.37
11395;BME280;5753;54.402;10.220;2023-04-26T03:12:45;101347.53;;;12.05;46.68
11395;BME280;5753;54.402;10.220;2023-04-26T03:15:11;101349.84;;;11.89;46.78
11395;BME280;5753;54.402;10.220;2023-04-26T03:17:38;101346.34;;;11.87;46.92
11395;BME280;5753;54.402;10.220;2023-04-26T03:20:04;101341.44;;;13.11;44.57
11395;BME280;5753;54.402;10.220;2023-04-26T03:22:31;101351.13;;;12.14;45.97
11395;BME280;5753;54.402;10.220;2023-04-26T03:24:58;101350.91;;;12.50;45.57
11395;BME280;5753;54.402;10.220;2023-04-26T03:27:24;101352.94;;;12.20;46.29
11395;BME280;5753;54.402;10.220;2023-04-26T03:29:50;101353.22;;;11.85;47.32
11395;BME280;5753;54.402;10.220;2023-04-26T03:32:16;101353.63;;;12.10;46.46
11395;BME280;5753;54.402;10.220;2023-04-26T03:34:42;101346.50;;;13.02;44.69
11395;BME280;5753;54.402;10.220;2023-04-26T03:37:08;101352.22;;;12.27;45.77
11395;BME280;5753;54.402;10.220;2023-04-26T03:39:34;101350.81;;;11.96;47.08
11395;BME280;5753;54.402;10.220;2023-04-26T03:42:00;101355.31;;;12.08;46.82
11395;BME280;5753;54.402;10.220;2023-04-26T03:44:26;101353.06;;;11.79;47.76
11395;BME280;5753;54.402;10.220;2023-04-26T03:46:52;101352.34;;;11.85;46.92
11395;BME280;5753;54.402;10.220;2023-04-26T03:49:18;101350.09;;;12.05;47.00
11395;BME280;5753;54.402;10.220;2023-04-26T03:51:45;101358.09;;;12.18;46.56
11395;BME280;5753;54.402;10.220;2023-04-26T03:54:11;101355.47;;;12.17;46.62
11395;BME280;5753;54.402;10.220;2023-04-26T03:56:37;101360.72;;;12.20;46.96
11395;BME280;5753;54.402;10.220;2023-04-26T03:59:04;101353.44;;;11.97;47.26
11395;BME280;5753;54.402;10.220;2023-04-26T04:01:30;101361.38;;;12.08;47.02
11395;BME280;5753;54.402;10.220;2023-04-26T04:03:57;101355.91;;;12.41;46.51
11395;BME280;5753;54.402;10.220;2023-04-26T04:06:23;101352.88;;;12.68;45.55
11395;BME280;5753;54.402;10.220;2023-04-26T04:08:50;101357.38;;;12.27;46.57
11395;BME280;5753;54.402;10.220;2023-04-26T04:11:16;101359.06;;;12.25;46.79
11395;BME280;5753;54.402;10.220;2023-04-26T04:13:42;101358.47;;;11.90;47.41
11395;BME280;5753;54.402;10.220;2023-04-26T04:16:08;101358.44;;;12.91;45.65
11395;BME280;5753;54.402;10.220;2023-04-26T04:18:35;101360.44;;;12.05;47.15
11395;BME280;5753;54.402;10.220;2023-04-26T04:21:01;101365.97;;;11.79;47.40
11395;BME280;5753;54.402;10.220;2023-04-26T04:23:28;101360.59;;;12.64;45.85
11395;BME280;5753;54.402;10.220;2023-04-26T04:25:54;101365.78;;;11.72;48.33
11395;BME280;5753;54.402;10.220;2023-04-26T04:28:20;101375.00;;;12.49;46.43
11395;BME280;5753;54.402;10.220;2023-04-26T04:30:47;101366.59;;;11.69;47.67
11395;BME280;5753;54.402;10.220;2023-04-26T04:33:14;101369.81;;;12.00;46.76
11395;BME280;5753;54.402;10.220;2023-04-26T04:35:41;101370.91;;;11.68;47.51
11395;BME280;5753;54.402;10.220;2023-04-26T04:38:08;101374.47;;;12.19;47.02
11395;BME280;5753;54.402;10.220;2023-04-26T04:40:34;101369.69;;;13.58;43.91
11395;BME280;5753;54.402;10.220;2023-04-26T04:43:00;101368.59;;;12.79;45.13
11395;BME280;5753;54.402;10.220;2023-04-26T04:45:27;101376.59;;;12.41;46.10
11395;BME280;5753;54.402;10.220;2023-04-26T04:47:53;101358.84;;;13.18;44.67
11395;BME280;5753;54.402;10.220;2023-04-26T04:50:19;101377.88;;;13.23;43.68
11395;BME280;5753;54.402;10.220;2023-04-26T04:52:46;101376.41;;;13.41;44.02
11395;BME280;5753;54.402;10.220;2023-04-26T04:55:12;101380.03;;;13.55;43.46
11395;BME280;5753;54.402;10.220;2023-04-26T04:57:38;101381.78;;;12.96;44.57
11395;BME280;5753;54.402;10.220;2023-04-26T05:00:05;101378.06;;;13.36;43.74
11395;BME280;5753;54.402;10.220;2023-04-26T05:02:35;101387.88;;;13.01;44.41
11395;BME280;5753;54.402;10.220;2023-04-26T05:05:02;101384.31;;;12.91;44.41
11395;BME280;5753;54.402;10.220;2023-04-26T05:07:30;101390.41;;;12.96;44.50
11395;BME280;5753;54.402;10.220;2023-04-26T05:09:57;101390.91;;;13.98;42.22
11395;BME280;5753;54.402;10.220;2023-04-26T05:12:23;101384.06;;;14.06;42.20
11395;BME280;5753;54.402;10.220;2023-04-26T05:14:49;101391.44;;;13.71;42.53
11395;BME280;5753;54.402;10.220;2023-04-26T05:17:15;101380.75;;;14.19;41.82
11395;BME280;5753;54.402;10.220;2023-04-26T05:19:41;101377.66;;;14.57;41.27
11395;BME280;5753;54.402;10.220;2023-04-26T05:22:07;101380.25;;;14.57;41.39
11395;BME280;5753;54.402;10.220;2023-04-26T05:24:33;101378.66;;;14.71;41.46
11395;BME280;5753;54.402;10.220;2023-04-26T05:26:59;101380.16;;;13.67;42.73
11395;BME280;5753;54.402;10.220;2023-04-26T05:29:29;101382.00;;;14.59;40.73
11395;BME280;5753;54.402;10.220;2023-04-26T05:31:55;101388.28;;;14.87;40.48
11395;BME280;5753;54.402;10.220;2023-04-26T05:34:23;101387.78;;;14.32;40.90
11395;BME280;5753;54.402;10.220;2023-04-26T05:36:49;101392.34;;;14.55;40.93
11395;BME280;5753;54.402;10.220;2023-04-26T05:39:16;101396.88;;;13.91;41.38
11395;BME280;5753;54.402;10.220;2023-04-26T05:41:43;101398.97;;;14.27;40.90
11395;BME280;5753;54.402;10.220;2023-04-26T05:44:10;101393.34;;;13.85;41.93
11395;BME280;5753;54.402;10.220;2023-04-26T05:46:36;101391.81;;;14.98;40.32
11395;BME280;5753;54.402;10.220;2023-04-26T05:49:02;101398.06;;;14.20;41.23
11395;BME280;5753;54.402;10.220;2023-04-26T05:51:28;101403.94;;;14.99;40.00
11395;BME280;5753;54.402;10.220;2023-04-26T05:53:54;101395.09;;;13.86;41.91
11395;BME280;5753;54.402;10.220;2023-04-26T05:56:20;101402.13;;;14.86;40.37
11395;BME280;5753;54.402;10.220;2023-04-26T05:58:46;101395.16;;;13.91;41.75
11395;BME280;5753;54.402;10.220;2023-04-26T06:01:13;101403.78;;;13.92;42.00
11395;BME280;5753;54.402;10.220;2023-04-26T06:03:39;101397.63;;;13.80;41.97
11395;BME280;5753;54.402;10.220;2023-04-26T06:06:05;101395.53;;;15.43;39.29
11395;BME280;5753;54.402;10.220;2023-04-26T06:08:33;101398.94;;;15.30;38.98
11395;BME280;5753;54.402;10.220;2023-04-26T06:10:59;101404.44;;;14.54;40.09
11395;BME280;5753;54.402;10.220;2023-04-26T06:13:25;101392.88;;;14.20;40.72
11395;BME280;5753;54.402;10.220;2023-04-26T06:15:52;101382.56;;;15.51;39.16
11395;BME280;5753;54.402;10.220;2023-04-26T06:18:19;101405.88;;;15.34;38.17
11395;BME280;5753;54.402;10.220;2023-04-26T06:20:48;101397.03;;;15.04;39.61
11395;BME280;5753;54.402;10.220;2023-04-26T06:23:14;101396.97;;;14.94;39.51
11395;BME280;5753;54.402;10.220;2023-04-26T06:25:40;101399.06;;;15.56;38.72
11395;BME280;5753;54.402;10.220;2023-04-26T06:28:12;101405.06;;;15.42;38.89
11395;BME280;5753;54.402;10.220;2023-04-26T06:30:38;101407.66;;;15.44;38.68
11395;BME280;5753;54.402;10.220;2023-04-26T06:33:04;101408.81;;;16.10;37.80
11395;BME280;5753;54.402;10.220;2023-04-26T06:35:30;101402.50;;;15.53;37.97
11395;BME280;5753;54.402;10.220;2023-04-26T06:37:57;101417.50;;;16.14;37.56
11395;BME280;5753;54.402;10.220;2023-04-26T06:40:23;101408.03;;;16.60;37.08
11395;BME280;5753;54.402;10.220;2023-04-26T06:42:49;101415.59;;;15.62;37.93
11395;BME280;5753;54.402;10.220;2023-04-26T06:45:15;101416.66;;;17.30;35.79
11395;BME280;5753;54.402;10.220;2023-04-26T06:47:41;101421.94;;;16.86;36.99
11395;BME280;5753;54.402;10.220;2023-04-26T06:50:08;101418.22;;;15.67;37.82
11395;BME280;5753;54.402;10.220;2023-04-26T06:52:34;101418.41;;;16.45;37.44
11395;BME280;5753;54.402;10.220;2023-04-26T06:55:01;101427.06;;;16.31;37.28
11395;BME280;5753;54.402;10.220;2023-04-26T06:57:28;101422.72;;;16.14;37.93
11395;BME280;5753;54.402;10.220;2023-04-26T06:59:54;101425.25;;;16.00;37.64
11395;BME280;5753;54.402;10.220;2023-04-26T07:02:21;101412.88;;;18.12;34.76
11395;BME280;5753;54.402;10.220;2023-04-26T07:04:49;101415.78;;;17.35;35.08
11395;BME280;5753;54.402;10.220;2023-04-26T07:07:15;101411.97;;;18.16;34.55
11395;BME280;5753;54.402;10.220;2023-04-26T07:09:42;101421.91;;;17.11;34.91
11395;BME280;5753;54.402;10.220;2023-04-26T07:12:10;101417.56;;;16.61;35.81
11395;BME280;5753;54.402;10.220;2023-04-26T07:14:36;101427.06;;;17.29;35.49
11395;BME280;5753;54.402;10.220;2023-04-26T07:17:06;101423.63;;;17.24;35.36
11395;BME280;5753;54.402;10.220;2023-04-26T07:19:32;101417.28;;;17.97;35.25
11395;BME280;5753;54.402;10.220;2023-04-26T07:21:58;101425.25;;;17.65;34.82
11395;BME280;5753;54.402;10.220;2023-04-26T07:24:24;101417.56;;;16.91;35.79
11395;BME280;5753;54.402;10.220;2023-04-26T07:26:50;101429.69;;;16.37;36.19
11395;BME280;5753;54.402;10.220;2023-04-26T07:29:17;101428.38;;;15.29;37.05
11395;BME280;5753;54.402;10.220;2023-04-26T07:31:46;101438.81;;;15.41;37.20
11395;BME280;5753;54.402;10.220;2023-04-26T07:34:12;101437.31;;;15.80;36.54
11395;BME280;5753;54.402;10.220;2023-04-26T07:36:38;101440.91;;;16.18;35.30
11395;BME280;5753;54.402;10.220;2023-04-26T07:39:04;101436.59;;;16.22;36.05
11395;BME280;5753;54.402;10.220;2023-04-26T07:41:31;101436.47;;;15.90;36.70
11395;BME280;5753;54.402;10.220;2023-04-26T07:43:57;101437.56;;;16.74;34.58
11395;BME280;5753;54.402;10.220;2023-04-26T07:46:24;101440.16;;;16.80;35.07
11395;BME280;5753;54.402;10.220;2023-04-26T07:48:50;101441.88;;;17.15;34.59
11395;BME280;5753;54.402;10.220;2023-04-26T07:51:16;101446.22;;;17.07;34.21
11395;BME280;5753;54.402;10.220;2023-04-26T07:53:42;101439.09;;;17.82;33.84
11395;BME280;5753;54.402;10.220;2023-04-26T07:56:09;101453.16;;;16.86;34.82
11395;BME280;5753;54.402;10.220;2023-04-26T07:58:36;101440.88;;;17.66;33.61
11395;BME280;5753;54.402;10.220;2023-04-26T08:01:04;101443.28;;;18.15;33.74
11395;BME280;5753;54.402;10.220;2023-04-26T08:03:30;101441.44;;;18.34;33.92
11395;BME280;5753;54.402;10.220;2023-04-26T08:05:57;101452.94;;;17.96;33.05
11395;BME280;5753;54.402;10.220;2023-04-26T08:08:25;101443.31;;;18.13;33.29
11395;BME280;5753;54.402;10.220;2023-04-26T08:10:51;101447.75;;;17.91;33.11
11395;BME280;5753;54.402;10.220;2023-04-26T08:13:18;101445.09;;;18.02;32.84
11395;BME280;5753;54.402;10.220;2023-04-26T08:15:44;101448.72;;;17.71;32.87
11395;BME280;5753;54.402;10.220;2023-04-26T08:18:10;101458.09;;;18.10;32.86
11395;BME280;5753;54.402;10.220;2023-04-26T08:20:36;101444.06;;;18.28;32.50
11395;BME280;5753;54.402;10.220;2023-04-26T08:23:03;101448.28;;;18.51;32.16
11395;BME280;5753;54.402;10.220;2023-04-26T08:25:29;101454.81;;;17.67;33.42
11395;BME280;5753;54.402;10.220;2023-04-26T08:27:55;101455.75;;;16.57;35.74
11395;BME280;5753;54.402;10.220;2023-04-26T08:30:22;101466.19;;;16.70;35.28
11395;BME280;5753;54.402;10.220;2023-04-26T08:32:48;101464.00;;;15.57;36.01
11395;BME280;5753;54.402;10.220;2023-04-26T08:35:14;101473.94;;;17.41;33.13
11395;BME280;5753;54.402;10.220;2023-04-26T08:37:40;101483.47;;;17.60;32.97
11395;BME280;5753;54.402;10.220;2023-04-26T08:40:07;101460.69;;;18.16;31.64
11395;BME280;5753;54.402;10.220;2023-04-26T08:42:45;101475.72;;;17.21;33.34
11395;BME280;5753;54.402;10.220;2023-04-26T08:45:12;101469.47;;;17.92;33.23
11395;BME280;5753;54.402;10.220;2023-04-26T08:47:57;101466.31;;;18.86;31.73
11395;BME280;5753;54.402;10.220;2023-04-26T08:50:29;101472.22;;;17.34;32.24
11395;BME280;5753;54.402;10.220;2023-04-26T08:52:56;101465.22;;;17.63;32.69
11395;BME280;5753;54.402;10.220;2023-04-26T08:55:23;101467.81;;;17.77;32.56
11395;BME280;5753;54.402;10.220;2023-04-26T08:57:50;101466.84;;;18.04;31.57
11395;BME280;5753;54.402;10.220;2023-04-26T09:00:17;101464.06;;;19.43;29.50
11395;BME280;5753;54.402;10.220;2023-04-26T09:02:49;101463.13;;;18.45;30.69
11395;BME280;5753;54.402;10.220;2023-04-26T09:05:16;101462.25;;;18.47;29.97
11395;BME280;5753;54.402;10.220;2023-04-26T09:07:47;101457.88;;;19.50;28.33
11395;BME280;5753;54.402;10.220;2023-04-26T09:10:17;101456.56;;;19.91;27.72
11395;BME280;5753;54.402;10.220;2023-04-26T09:12:56;101464.84;;;19.50;29.02
11395;BME280;5753;54.402;10.220;2023-04-26T09:15:24;101462.03;;;19.70;29.21
11395;BME280;5753;54.402;10.220;2023-04-26T09:17:51;101459.06;;;19.19;28.87
11395;BME280;5753;54.402;10.220;2023-04-26T09:22:44;101466.69;;;20.16;29.01
11395;BME280;5753;54.402;10.220;2023-04-26T09:25:12;101469.31;;;19.37;30.16
11395;BME280;5753;54.402;10.220;2023-04-26T09:27:42;101465.47;;;19.75;30.53
11395;BME280;5753;54.402;10.220;2023-04-26T09:30:12;101485.19;;;20.02;33.06
11395;BME280;5753;54.402;10.220;2023-04-26T09:33:00;101472.66;;;18.44;35.59
11395;BME280;5753;54.402;10.220;2023-04-26T09:35:33;101484.25;;;18.01;35.59
11395;BME280;5753;54.402;10.220;2023-04-26T09:38:00;101486.84;;;17.99;35.86
11395;BME280;5753;54.402;10.220;2023-04-26T09:40:28;101487.84;;;17.68;36.03
11395;BME280;5753;54.402;10.220;2023-04-26T09:43:06;101484.91;;;18.35;34.90
11395;BME280;5753;54.402;10.220;2023-04-26T09:45:43;101500.16;;;19.05;35.67
11395;BME280;5753;54.402;10.220;2023-04-26T09:48:16;101491.47;;;20.55;32.44
11395;BME280;5753;54.402;10.220;2023-04-26T09:50:44;101498.00;;;19.46;33.45
11395;BME280;5753;54.402;10.220;2023-04-26T09:56:18;101500.53;;;21.43;31.38
11395;BME280;5753;54.402;10.220;2023-04-26T10:01:24;101534.75;;;16.70;34.35
11395;BME280;5753;54.402;10.220;2023-04-26T10:03:50;101528.91;;;15.47;36.31
11395;BME280;5753;54.402;10.220;2023-04-26T10:06:16;101524.31;;;15.12;37.29
11395;BME280;5753;54.402;10.220;2023-04-26T10:08:43;101537.16;;;14.95;38.19
11395;BME280;5753;54.402;10.220;2023-04-26T10:11:10;101520.69;;;16.16;36.30
11395;BME280;5753;54.402;10.220;2023-04-26T10:13:38;101519.78;;;18.24;33.30
11395;BME280;5753;54.402;10.220;2023-04-26T10:16:04;101521.75;;;17.17;33.52
11395;BME280;5753;54.402;10.220;2023-04-26T10:18:32;101519.03;;;17.98;32.15
11395;BME280;5753;54.402;10.220;2023-04-26T10:21:25;101518.94;;;19.46;31.02
11395;BME280;5753;54.402;10.220;2023-04-26T10:23:53;101513.44;;;19.72;30.60
11395;BME280;5753;54.402;10.220;2023-04-26T10:26:48;101508.25;;;18.68;31.98
11395;BME280;5753;54.402;10.220;2023-04-26T10:29:16;101496.59;;;19.12;31.07
11395;BME280;5753;54.402;10.220;2023-04-26T10:34:27;101490.28;;;19.34;33.02
11395;BME280;5753;54.402;10.220;2023-04-26T10:37:12;101510.63;;;19.02;35.19
11395;BME280;5753;54.402;10.220;2023-04-26T10:39:41;101516.53;;;16.78;41.11
11395;BME280;5753;54.402;10.220;2023-04-26T10:42:23;101535.69;;;15.25;45.99
11395;BME280;5753;54.402;10.220;2023-04-26T10:47:26;101529.81;;;15.55;42.50
11395;BME280;5753;54.402;10.220;2023-04-26T10:50:00;101531.16;;;16.44;42.55
11395;BME280;5753;54.402;10.220;2023-04-26T10:52:26;101527.81;;;17.42;41.43
11395;BME280;5753;54.402;10.220;2023-04-26T10:54:57;101523.22;;;18.30;41.95
11395;BME280;5753;54.402;10.220;2023-04-26T10:57:48;101523.38;;;18.02;40.73
11395;BME280;5753;54.402;10.220;2023-04-26T11:00:28;101517.13;;;18.31;40.23
11395;BME280;5753;54.402;10.220;2023-04-26T11:03:05;101511.28;;;17.48;38.90
11395;BME280;5753;54.402;10.220;2023-04-26T11:05:50;101500.81;;;17.81;37.42
11395;BME280;5753;54.402;10.220;2023-04-26T11:08:30;101505.06;;;18.08;36.51
11395;BME280;5753;54.402;10.220;2023-04-26T11:13:38;101508.50;;;18.18;32.85
11395;BME280;5753;54.402;10.220;2023-04-26T11:16:07;101510.47;;;17.21;34.03
11395;BME280;5753;54.402;10.220;2023-04-26T11:18:35;101516.91;;;18.73;34.39
11395;BME280;5753;54.402;10.220;2023-04-26T11:21:03;101520.78;;;19.32;34.09
11395;BME280;5753;54.402;10.220;2023-04-26T11:23:30;101506.53;;;18.61;34.01
11395;BME280;5753;54.402;10.220;2023-04-26T11:25:58;101510.03;;;18.63;34.24
11395;BME280;5753;54.402;10.220;2023-04-26T11:28:24;101523.00;;;19.76;33.70
11395;BME280;5753;54.402;10.220;2023-04-26T11:30:51;101538.22;;;17.39;36.74
11395;BME280;5753;54.402;10.220;2023-04-26T11:33:19;101536.28;;;16.16;39.38
11395;BME280;5753;54.402;10.220;2023-04-26T11:35:49;101545.72;;;16.03;39.41
11395;BME280;5753;54.402;10.220;2023-04-26T11:38:16;101535.63;;;15.16;41.19
11395;BME280;5753;54.402;10.220;2023-04-26T11:40:43;101548.69;;;15.25;41.02
11395;BME280;5753;54.402;10.220;2023-04-26T11:43:10;101538.03;;;16.25;39.38
11395;BME280;5753;54.402;10.220;2023-04-26T11:45:37;101535.66;;;17.18;37.59
11395;BME280;5753;54.402;10.220;2023-04-26T11:48:08;101531.00;;;18.39;35.59
11395;BME280;5753;54.402;10.220;2023-04-26T11:50:37;101531.19;;;18.07;33.57
11395;BME280;5753;54.402;10.220;2023-04-26T11:53:05;101529.56;;;17.34;34.80
11395;BME280;5753;54.402;10.220;2023-04-26T11:55:33;101538.16;;;18.03;32.96
11395;BME280;5753;54.402;10.220;2023-04-26T11:58:00;101517.06;;;18.46;32.92
11395;BME280;5753;54.402;10.220;2023-04-26T12:00:26;101523.72;;;18.99;32.53
11395;BME280;5753;54.402;10.220;2023-04-26T12:02:53;101532.47;;;18.93;31.39
11395;BME280;5753;54.402;10.220;2023-04-26T12:05:28;101522.41;;;19.48;32.34
11395;BME280;5753;54.402;10.220;2023-04-26T12:07:58;101528.25;;;20.49;31.08
11395;BME280;5753;54.402;10.220;2023-04-26T12:10:27;101532.91;;;20.88;30.28
11395;BME280;5753;54.402;10.220;2023-04-26T12:12:55;101529.78;;;20.62;30.22
11395;BME280;5753;54.402;10.220;2023-04-26T12:15:28;101527.63;;;20.27;31.11
11395;BME280;5753;54.402;10.220;2023-04-26T12:20:29;101523.44;;;21.81;29.11
11395;BME280;5753;54.402;10.220;2023-04-26T12:23:04;101528.41;;;20.95;27.47
11395;BME280;5753;54.402;10.220;2023-04-26T12:25:34;101517.59;;;23.24;27.84
11395;BME280;5753;54.402;10.220;2023-04-26T12:28:05;101525.81;;;24.39;23.01
11395;BME280;5753;54.402;10.220;2023-04-26T12:30:33;101520.16;;;22.53;26.29
11395;BME280;5753;54.402;10.220;2023-04-26T12:32:59;101529.81;;;22.53;26.87
11395;BME280;5753;54.402;10.220;2023-04-26T12:35:25;101562.50;;;19.49;32.75
11395;BME280;5753;54.402;10.220;2023-04-26T12:37:52;101568.19;;;18.85;32.14
11395;BME280;5753;54.402;10.220;2023-04-26T12:40:22;101576.03;;;18.86;34.02
11395;BME280;5753;54.402;10.220;2023-04-26T12:42:49;101578.19;;;17.23;35.53
11395;BME280;5753;54.402;10.220;2023-04-26T12:45:16;101593.31;;;15.83;37.18
11395;BME280;5753;54.402;10.220;2023-04-26T12:47:45;101595.50;;;16.78;37.17
11395;BME280;5753;54.402;10.220;2023-04-26T12:50:12;101599.25;;;14.74;42.02
11395;BME280;5753;54.402;10.220;2023-04-26T12:52:39;101597.59;;;14.82;42.20
11395;BME280;5753;54.402;10.220;2023-04-26T12:55:09;101585.13;;;14.51;42.35
11395;BME280;5753;54.402;10.220;2023-04-26T12:57:41;101587.31;;;14.91;42.03
11395;BME280;5753;54.402;10.220;2023-04-26T13:00:12;101584.59;;;15.78;39.19
11395;BME280;5753;54.402;10.220;2023-04-26T13:02:39;101574.66;;;16.67;36.86
11395;BME280;5753;54.402;10.220;2023-04-26T13:05:05;101581.66;;;17.83;33.50
11395;BME280;5753;54.402;10.220;2023-04-26T13:07:33;101570.09;;;19.75;31.11
11395;BME280;5753;54.402;10.220;2023-04-26T13:10:00;101582.75;;;20.84;30.73
11395;BME280;5753;54.402;10.220;2023-04-26T13:12:26;101578.88;;;20.48;30.51